createdAt,value
2018-05-02T00:01:08.112Z,6.50
2018-05-02T00:03:37.930Z,6.67
2018-05-02T00:06:06.982Z,6.43
2018-05-02T00:08:36.080Z,6.03
2018-05-02T00:11:05.125Z,6.70
2018-05-02T00:13:34.173Z,6.70
2018-05-02T00:16:03.293Z,6.43
2018-05-02T00:18:33.098Z,6.50
2018-05-02T00:21:02.908Z,6.30
2018-05-02T00:23:31.956Z,6.77
2018-05-02T00:26:00.989Z,6.80
2018-05-02T00:28:30.192Z,6.10
2018-05-02T00:30:59.244Z,6.50
2018-05-02T00:33:28.361Z,6.93
2018-05-02T00:35:57.476Z,6.60
2018-05-02T00:38:26.508Z,7.47
2018-05-02T00:40:55.550Z,8.10
2018-05-02T00:43:24.661Z,6.97
2018-05-02T00:45:53.701Z,6.60
2018-05-02T00:48:22.749Z,6.80
2018-05-02T00:50:52.597Z,6.00
2018-05-02T00:53:21.646Z,7.23
2018-05-02T00:55:50.688Z,6.90
2018-05-02T00:58:19.910Z,7.23
2018-05-02T01:00:49.041Z,6.93
2018-05-02T01:03:18.093Z,7.30
2018-05-02T01:05:47.164Z,6.77
2018-05-02T01:08:16.222Z,6.80
2018-05-02T01:10:45.263Z,7.53
2018-05-02T01:13:14.324Z,7.00
2018-05-02T01:15:44.240Z,7.30
2018-05-02T01:18:14.048Z,7.70
2018-05-02T01:20:43.880Z,8.17
2018-05-02T01:23:12.949Z,7.70
2018-05-02T01:25:41.986Z,7.43
2018-05-02T01:28:11.028Z,8.10
2018-05-02T01:30:40.108Z,7.70
2018-05-02T01:33:09.187Z,7.13
2018-05-02T01:35:38.235Z,7.20
2018-05-02T01:38:08.053Z,8.20
2018-05-02T01:40:37.106Z,8.60
2018-05-02T01:43:06.207Z,7.73
2018-05-02T01:45:35.273Z,7.87
2018-05-02T01:48:04.353Z,7.60
2018-05-02T01:50:33.388Z,7.10
2018-05-02T01:53:02.503Z,8.03
2018-05-02T01:55:32.315Z,7.30
2018-05-02T01:58:02.140Z,7.30
2018-05-02T02:00:31.951Z,7.07
2018-05-02T02:03:01.785Z,7.00
2018-05-02T02:05:30.846Z,7.07
2018-05-02T02:07:59.904Z,7.20
2018-05-02T02:10:28.983Z,7.67
2018-05-02T02:12:58.022Z,6.50
2018-05-02T02:15:27.162Z,7.20
2018-05-02T02:17:56.202Z,7.47
2018-05-02T02:20:25.304Z,7.00
2018-05-02T02:22:54.352Z,7.37
2018-05-02T02:25:23.930Z,7.13
2018-05-02T02:27:53.779Z,7.83
2018-05-02T02:30:22.836Z,8.57
2018-05-02T02:32:52.683Z,7.90
2018-05-02T02:35:21.733Z,8.10
2018-05-02T02:37:51.544Z,7.63
2018-05-02T02:40:21.513Z,7.30
2018-05-02T02:42:50.849Z,7.77
2018-05-02T02:45:19.909Z,7.50
2018-05-02T02:47:48.989Z,7.33
2018-05-02T02:50:18.045Z,7.70
2018-05-02T02:52:47.885Z,8.37
2018-05-02T02:55:16.963Z,8.17
2018-05-02T02:57:46.005Z,8.33
2018-05-02T03:00:15.075Z,7.80
2018-05-02T03:02:44.145Z,8.00
2018-05-02T03:05:13.994Z,10.37
2018-05-02T03:07:43.034Z,9.60
2018-05-02T03:10:12.882Z,10.07
2018-05-02T03:12:41.925Z,8.63
2018-05-02T03:15:11.009Z,8.97
2018-05-02T03:17:40.049Z,9.77
2018-05-02T03:20:09.898Z,9.70
2018-05-02T03:22:38.968Z,12.57
2018-05-02T03:25:08.020Z,29.13
2018-05-02T03:27:37.104Z,13.80
2018-05-02T03:30:06.160Z,17.03
2018-05-02T03:32:35.233Z,15.23
2018-05-02T03:35:04.288Z,9.13
2018-05-02T03:37:33.353Z,8.07
2018-05-02T03:40:02.412Z,9.40
2018-05-02T03:42:32.251Z,9.00
2018-05-02T03:45:01.324Z,9.20
2018-05-02T03:47:31.136Z,9.37
2018-05-02T03:50:00.969Z,9.00
2018-05-02T03:52:30.033Z,9.53
2018-05-02T03:54:59.876Z,9.33
2018-05-02T03:57:28.925Z,9.60
2018-05-02T04:00:15.813Z,9.10
2018-05-02T04:03:02.753Z,9.47
2018-05-02T04:05:49.403Z,9.63
2018-05-02T04:08:18.473Z,8.47
2018-05-02T04:10:48.285Z,9.20
2018-05-02T04:13:18.125Z,8.90
2018-05-02T04:15:47.176Z,11.30
2018-05-02T04:18:16.245Z,9.60
2018-05-02T04:20:45.301Z,10.83
2018-05-02T04:23:15.234Z,11.13
2018-05-02T04:25:44.300Z,9.60
2018-05-02T04:28:13.366Z,11.40
2018-05-02T04:30:42.430Z,11.90
2018-05-02T04:33:11.486Z,9.33
2018-05-02T04:35:40.865Z,10.10
2018-05-02T04:38:10.677Z,10.10
2018-05-02T04:40:40.517Z,10.20
2018-05-02T04:43:09.571Z,9.73
2018-05-02T04:45:38.678Z,10.67
2018-05-02T04:48:07.753Z,9.47
2018-05-02T04:50:36.791Z,10.73
2018-05-02T04:53:05.866Z,10.43
2018-05-02T04:55:35.676Z,11.00
2018-05-02T04:58:05.516Z,10.47
2018-05-02T05:00:34.597Z,17.83
2018-05-02T05:03:03.645Z,14.53
2018-05-02T05:05:32.703Z,10.30
2018-05-02T05:08:01.776Z,10.63
2018-05-02T05:10:31.604Z,11.00
2018-05-02T05:13:00.668Z,10.50
2018-05-02T05:15:30.514Z,10.77
2018-05-02T05:17:59.603Z,11.60
2018-05-02T05:20:29.409Z,9.97
2018-05-02T05:22:59.246Z,11.80
2018-05-02T05:25:28.297Z,11.43
2018-05-02T05:27:58.147Z,11.60
2018-05-02T05:30:27.201Z,9.87
2018-05-02T05:32:56.274Z,11.50
2018-05-02T05:35:25.335Z,10.20
2018-05-02T05:37:54.398Z,11.47
2018-05-02T05:40:24.249Z,11.13
2018-05-02T05:42:53.300Z,11.37
2018-05-02T05:45:23.151Z,11.03
2018-05-02T05:47:52.224Z,11.63
2018-05-02T05:50:21.290Z,37.17
2018-05-02T05:52:50.358Z,14.13
2018-05-02T05:55:19.466Z,12.37
2018-05-02T05:57:48.511Z,11.30
2018-05-02T06:00:17.659Z,10.80
2018-05-02T06:02:46.696Z,12.00
2018-05-02T06:05:15.922Z,12.80
2018-05-02T06:07:44.911Z,12.10
2018-05-02T06:10:13.976Z,11.47
2018-05-02T06:12:43.854Z,12.60
2018-05-02T06:15:12.870Z,11.30
2018-05-02T06:17:42.727Z,12.67
2018-05-02T06:20:11.779Z,13.17
2018-05-02T06:22:41.618Z,13.90
2018-05-02T06:25:10.670Z,13.43
2018-05-02T06:27:39.764Z,13.60
2018-05-02T06:30:08.822Z,13.30
2018-05-02T06:32:37.901Z,13.70
2018-05-02T06:35:06.949Z,12.73
2018-05-02T06:37:36.043Z,13.57
2018-05-02T06:40:05.078Z,12.93
2018-05-02T06:42:34.175Z,12.70
2018-05-02T06:45:03.225Z,13.70
2018-05-02T06:47:32.285Z,11.97
2018-05-02T06:50:01.406Z,12.97
2018-05-02T06:52:30.485Z,12.90
2018-05-02T06:54:59.534Z,12.10
2018-05-02T06:57:28.618Z,13.00
2018-05-02T06:59:58.461Z,12.93
2018-05-02T07:02:27.517Z,33.27
2018-05-02T07:04:56.602Z,17.23
2018-05-02T07:07:25.659Z,13.00
2018-05-02T07:09:54.713Z,13.47
2018-05-02T07:12:23.795Z,13.00
2018-05-02T07:14:53.620Z,11.57
2018-05-02T07:17:23.473Z,12.60
2018-05-02T07:19:52.540Z,13.40
2018-05-02T07:22:21.588Z,13.00
2018-05-02T07:24:50.669Z,12.53
2018-05-02T07:27:19.750Z,13.33
2018-05-02T07:29:48.816Z,12.73
2018-05-02T07:32:17.867Z,13.30
2018-05-02T07:34:46.938Z,14.00
2018-05-02T07:37:15.997Z,12.70
2018-05-02T07:39:45.083Z,11.93
2018-05-02T07:42:14.991Z,20.70
2018-05-02T07:44:44.000Z,16.27
2018-05-02T07:47:13.068Z,11.70
2018-05-02T07:49:42.924Z,11.27
2018-05-02T07:52:12.004Z,11.10
2018-05-02T07:54:41.077Z,11.00
2018-05-02T07:57:10.130Z,9.87
2018-05-02T07:59:39.174Z,9.67
2018-05-02T08:02:09.011Z,10.30
2018-05-02T08:04:38.053Z,9.00
2018-05-02T08:07:07.139Z,9.13
2018-05-02T08:09:36.188Z,9.07
2018-05-02T08:12:05.263Z,8.80
2018-05-02T08:14:35.070Z,9.90
2018-05-02T08:17:04.929Z,9.40
2018-05-02T08:19:33.968Z,8.60
2018-05-02T08:22:03.092Z,9.27
2018-05-02T08:24:32.115Z,8.90
2018-05-02T08:27:01.162Z,10.77
2018-05-02T08:29:30.985Z,8.40
2018-05-02T08:32:00.042Z,9.73
2018-05-02T08:34:29.121Z,9.40
2018-05-02T08:36:58.149Z,9.40
2018-05-02T08:39:27.981Z,8.50
2018-05-02T08:41:57.036Z,9.60
2018-05-02T08:44:26.103Z,9.17
2018-05-02T08:46:55.145Z,9.77
2018-05-02T08:49:24.976Z,9.27
2018-05-02T08:51:54.029Z,8.63
2018-05-02T08:54:23.099Z,8.93
2018-05-02T08:56:52.145Z,9.00
2018-05-02T08:59:21.975Z,8.93
2018-05-02T09:01:51.061Z,8.57
2018-05-02T09:04:20.862Z,7.90
2018-05-02T09:06:49.938Z,8.90
2018-05-02T09:09:19.008Z,8.57
2018-05-02T09:11:48.078Z,8.80
2018-05-02T09:14:17.133Z,7.47
2018-05-02T09:16:46.221Z,7.00
2018-05-02T09:19:16.059Z,7.90
2018-05-02T09:21:46.054Z,7.80
2018-05-02T09:24:15.136Z,7.90
2018-05-02T09:26:44.180Z,8.47
2018-05-02T09:29:13.230Z,7.33
2018-05-02T09:31:42.320Z,8.30
2018-05-02T09:34:11.437Z,8.40
2018-05-02T09:36:41.293Z,7.97
2018-05-02T09:39:10.365Z,6.80
2018-05-02T09:41:39.396Z,7.50
2018-05-02T09:44:08.509Z,8.43
2018-05-02T09:46:37.520Z,8.33
2018-05-02T09:49:06.584Z,8.03
2018-05-02T09:51:35.703Z,8.50
2018-05-02T09:54:04.757Z,7.73
2018-05-02T09:56:33.800Z,8.27
2018-05-02T09:59:02.865Z,7.50
2018-05-02T10:01:31.909Z,8.30
2018-05-02T10:04:01.773Z,8.30
2018-05-02T10:06:30.820Z,8.40
2018-05-02T10:08:59.876Z,8.20
2018-05-02T10:11:28.941Z,8.40
2018-05-02T10:13:58.033Z,7.80
2018-05-02T10:16:27.082Z,6.70
2018-05-02T10:18:56.920Z,8.73
2018-05-02T10:21:25.993Z,10.17
2018-05-02T10:23:55.802Z,8.97
2018-05-02T10:26:25.661Z,13.20
2018-05-02T10:28:54.708Z,8.40
2018-05-02T10:31:24.519Z,6.73
2018-05-02T10:33:54.368Z,7.30
2018-05-02T10:36:23.447Z,7.10
2018-05-02T10:38:52.497Z,6.93
2018-05-02T10:41:21.579Z,7.13
2018-05-02T10:43:50.621Z,7.13
2018-05-02T10:46:20.467Z,7.40
2018-05-02T10:48:49.499Z,6.70
2018-05-02T10:51:18.569Z,7.43
2018-05-02T10:53:47.649Z,14.23
2018-05-02T10:56:16.714Z,7.90
2018-05-02T10:58:46.562Z,7.67
2018-05-02T11:01:15.646Z,7.23
2018-05-02T11:03:44.710Z,7.80
2018-05-02T11:06:14.550Z,6.90
2018-05-02T11:08:43.585Z,7.10
2018-05-02T11:11:12.661Z,6.90
2018-05-02T11:13:41.730Z,6.57
2018-05-02T11:16:10.803Z,7.50
2018-05-02T11:18:40.608Z,6.90
2018-05-02T11:21:10.452Z,7.13
2018-05-02T11:23:39.492Z,7.73
2018-05-02T11:26:08.584Z,7.80
2018-05-02T11:28:37.618Z,7.33
2018-05-02T11:31:06.687Z,7.50
2018-05-02T11:33:35.781Z,7.87
2018-05-02T11:36:04.829Z,7.97
2018-05-02T11:38:33.880Z,8.40
2018-05-02T11:41:03.732Z,7.70
2018-05-02T11:43:32.776Z,7.43
2018-05-02T11:46:01.854Z,7.37
2018-05-02T11:48:30.908Z,8.00
2018-05-02T11:50:59.949Z,7.57
2018-05-02T11:53:29.012Z,8.37
2018-05-02T11:55:58.056Z,8.50
2018-05-02T11:58:27.894Z,7.20
2018-05-02T12:00:56.918Z,7.93
2018-05-02T12:03:26.047Z,7.70
2018-05-02T12:05:55.049Z,7.33
2018-05-02T12:08:24.852Z,7.67
2018-05-02T12:10:53.944Z,8.67
2018-05-02T12:13:22.973Z,8.67
2018-05-02T12:15:52.051Z,8.00
2018-05-02T12:18:21.874Z,7.53
2018-05-02T12:20:51.708Z,8.80
2018-05-02T12:23:20.753Z,8.73
2018-05-02T12:25:49.838Z,8.30
2018-05-02T12:28:18.890Z,9.17
2018-05-02T12:30:47.937Z,9.27
2018-05-02T12:33:17.105Z,8.70
2018-05-02T12:35:46.160Z,7.93
2018-05-02T12:38:16.280Z,8.73
2018-05-02T12:40:45.393Z,9.20
2018-05-02T12:43:14.435Z,8.07
2018-05-02T12:45:43.461Z,8.40
2018-05-02T12:48:12.579Z,8.40
2018-05-02T12:50:41.616Z,7.93
2018-05-02T12:53:10.653Z,7.77
2018-05-02T12:55:39.740Z,8.47
2018-05-02T12:58:08.798Z,8.47
2018-05-02T13:00:37.847Z,9.23
2018-05-02T13:03:07.016Z,8.97
2018-05-02T13:05:36.850Z,9.37
2018-05-02T13:08:05.909Z,8.57
2018-05-02T13:10:34.965Z,8.47
2018-05-02T13:13:04.001Z,8.27
2018-05-02T13:15:33.802Z,9.03
2018-05-02T13:18:02.983Z,9.50
2018-05-02T13:20:32.062Z,9.70
2018-05-02T13:23:01.106Z,9.53
2018-05-02T13:25:30.942Z,9.10
2018-05-02T13:27:59.984Z,10.10
2018-05-02T13:30:29.037Z,8.40
2018-05-02T13:32:58.122Z,8.93
2018-05-02T13:35:27.160Z,8.20
2018-05-02T13:37:56.216Z,10.00
2018-05-02T13:40:25.374Z,9.43
2018-05-02T13:42:54.440Z,10.00
2018-05-02T13:45:23.472Z,10.57
2018-05-02T13:47:53.324Z,8.40
2018-05-02T13:50:22.373Z,8.73
2018-05-02T13:52:52.183Z,8.23
2018-05-02T13:55:21.265Z,8.77
2018-05-02T13:57:50.343Z,8.37
2018-05-02T14:00:19.377Z,8.33
2018-05-02T14:02:49.225Z,8.37
2018-05-02T14:05:18.365Z,9.33
2018-05-02T14:07:47.402Z,8.87
2018-05-02T14:10:16.678Z,9.20
2018-05-02T14:12:46.500Z,9.00
2018-05-02T14:15:16.312Z,12.80
2018-05-02T14:17:46.183Z,18.40
2018-05-02T14:20:15.227Z,19.40
2018-05-02T14:22:44.267Z,9.10
2018-05-02T14:25:13.594Z,9.43
2018-05-02T14:27:43.409Z,9.83
2018-05-02T14:30:13.228Z,10.23
2018-05-02T14:32:43.137Z,9.37
2018-05-02T14:35:12.160Z,11.07
2018-05-02T14:37:41.202Z,9.57
2018-05-02T14:40:10.635Z,9.20
2018-05-02T14:42:40.653Z,9.17
2018-05-02T14:45:10.469Z,8.93
2018-05-02T14:47:40.288Z,9.07
2018-05-02T14:50:10.094Z,8.90
2018-05-02T14:52:39.903Z,8.33
2018-05-02T14:55:09.713Z,9.40
2018-05-02T14:57:39.563Z,9.17
2018-05-02T15:00:08.618Z,9.17
2018-05-02T15:02:38.429Z,9.00
2018-05-02T15:05:08.245Z,9.47
2018-05-02T15:07:38.069Z,9.53
2018-05-02T15:10:07.128Z,9.07
2018-05-02T15:12:36.191Z,8.80
2018-05-02T15:15:05.305Z,10.17
2018-05-02T15:17:34.406Z,17.37
2018-05-02T15:20:03.444Z,11.90
2018-05-02T15:22:32.527Z,21.10
2018-05-02T15:25:02.368Z,11.83
2018-05-02T15:27:31.438Z,55.93
2018-05-02T15:30:01.293Z,23.77
2018-05-02T15:32:30.359Z,23.70
2018-05-02T15:34:59.418Z,30.17
2018-05-02T15:37:28.489Z,11.20
2018-05-02T15:39:57.578Z,48.60
2018-05-02T15:42:26.638Z,67.50
2018-05-02T15:44:55.715Z,46.63
2018-05-02T15:47:25.525Z,33.23
2018-05-02T15:49:55.364Z,10.83
2018-05-02T15:52:24.440Z,11.43
2018-05-02T15:54:54.301Z,11.77
2018-05-02T15:57:23.421Z,10.33
2018-05-02T15:59:52.485Z,11.93
2018-05-02T16:02:21.540Z,11.57
2018-05-02T16:04:50.625Z,10.47
2018-05-02T16:07:20.433Z,11.70
2018-05-02T16:09:50.274Z,11.93
2018-05-02T16:12:19.345Z,13.63
2018-05-02T16:14:49.197Z,12.00
2018-05-02T16:17:18.288Z,11.40
2018-05-02T16:19:47.325Z,12.77
2018-05-02T16:22:16.408Z,11.50
2018-05-02T16:24:45.483Z,12.10
2018-05-02T16:27:14.567Z,12.40
2018-05-02T16:29:43.620Z,12.97
2018-05-02T16:32:13.468Z,13.30
2018-05-02T16:34:42.552Z,12.63
2018-05-02T16:37:11.605Z,14.20
2018-05-02T16:39:40.694Z,13.73
2018-05-02T16:42:09.748Z,13.43
2018-05-02T16:44:38.857Z,13.20
2018-05-02T16:47:07.916Z,14.30
2018-05-02T16:49:37.767Z,12.87
2018-05-02T16:52:06.857Z,12.73
2018-05-02T16:54:35.982Z,15.00
2018-05-02T16:57:05.048Z,14.70
2018-05-02T16:59:34.126Z,13.83
2018-05-02T17:02:03.185Z,14.47
2018-05-02T17:04:33.194Z,14.00
2018-05-02T17:07:02.885Z,12.70
2018-05-02T17:09:31.986Z,14.60
2018-05-02T17:12:01.035Z,13.33
2018-05-02T17:14:30.085Z,14.73
2018-05-02T17:16:59.171Z,13.60
2018-05-02T17:19:28.237Z,12.87
2018-05-02T17:21:58.153Z,16.90
2018-05-02T17:24:27.152Z,36.33
2018-05-02T17:26:56.220Z,16.63
2018-05-02T17:29:25.280Z,15.67
2018-05-02T17:31:55.139Z,14.27
2018-05-02T17:34:24.194Z,16.57
2018-05-02T17:36:54.055Z,16.60
2018-05-02T17:39:23.133Z,16.93
2018-05-02T17:41:52.181Z,49.60
2018-05-02T17:44:21.252Z,48.03
2018-05-02T17:46:50.345Z,20.90
2018-05-02T17:49:19.393Z,17.20
2018-05-02T17:51:48.476Z,14.03
2018-05-02T17:54:18.315Z,14.63
2018-05-02T17:56:47.380Z,15.33
2018-05-02T17:59:17.219Z,14.67
2018-05-02T18:01:46.278Z,14.57
2018-05-02T18:04:15.340Z,39.87
2018-05-02T18:06:44.397Z,45.33
2018-05-02T18:09:13.476Z,17.73
2018-05-02T18:11:43.297Z,13.70
2018-05-02T18:14:13.128Z,14.80
2018-05-02T18:16:42.193Z,15.63
2018-05-02T18:19:12.046Z,14.13
2018-05-02T18:21:41.142Z,13.90
2018-05-02T18:24:10.197Z,14.90
2018-05-02T18:26:40.056Z,15.03
2018-05-02T18:29:09.118Z,13.80
2018-05-02T18:31:38.954Z,14.40
2018-05-02T18:34:08.010Z,15.23
2018-05-02T18:36:37.873Z,13.73
2018-05-02T18:39:06.953Z,70.77
2018-05-02T18:41:36.026Z,40.27
2018-05-02T18:44:05.886Z,14.90
2018-05-02T18:46:34.988Z,14.30
2018-05-02T18:49:04.049Z,14.90
2018-05-02T18:51:33.169Z,14.70
2018-05-02T18:54:02.226Z,13.40
2018-05-02T18:56:31.363Z,15.43
2018-05-02T18:59:00.420Z,14.30
2018-05-02T19:01:29.501Z,14.43
2018-05-02T19:03:58.628Z,13.53
2018-05-02T19:06:28.413Z,28.47
2018-05-02T19:08:57.453Z,33.50
2018-05-02T19:11:26.548Z,29.13
2018-05-02T19:14:01.461Z,18.13
2018-05-02T19:16:30.538Z,51.00
2018-05-02T19:19:05.062Z,21.07
2018-05-02T19:21:34.403Z,15.47
2018-05-02T19:24:03.456Z,15.13
2018-05-02T19:26:37.369Z,14.93
2018-05-02T19:29:06.423Z,14.40
2018-05-02T19:31:41.931Z,20.33
2018-05-02T19:34:10.980Z,39.40
2018-05-02T19:36:40.797Z,38.27
2018-05-02T19:39:10.688Z,23.63
2018-05-02T19:41:45.173Z,15.20
2018-05-02T19:44:14.279Z,14.97
2018-05-02T19:46:43.315Z,14.73
2018-05-02T19:49:13.133Z,15.63
2018-05-02T19:51:48.581Z,14.33
2018-05-02T19:54:17.631Z,15.87
2018-05-02T19:56:46.675Z,15.77
2018-05-02T19:59:15.750Z,14.50
2018-05-02T20:01:51.196Z,14.33
2018-05-02T20:04:21.080Z,16.53
2018-05-02T20:06:50.119Z,14.60
2018-05-02T20:09:24.767Z,15.87
2018-05-02T20:11:59.400Z,15.30
2018-05-02T20:14:29.201Z,16.00
2018-05-02T20:16:58.253Z,16.20
2018-05-02T20:19:28.076Z,15.40
2018-05-02T20:21:57.932Z,15.43
2018-05-02T20:24:27.699Z,15.20
2018-05-02T20:26:57.584Z,15.50
2018-05-02T20:29:26.668Z,14.70
2018-05-02T20:31:55.748Z,14.97
2018-05-02T20:34:24.810Z,13.83
2018-05-02T20:36:53.880Z,15.33
2018-05-02T20:39:23.752Z,16.77
2018-05-02T20:41:52.809Z,17.40
2018-05-02T20:44:21.853Z,17.07
2018-05-02T20:46:50.954Z,16.00
2018-05-02T20:49:20.019Z,15.77
2018-05-02T20:51:49.691Z,15.37
2018-05-02T20:54:19.611Z,15.17
2018-05-02T20:56:49.109Z,15.23
2018-05-02T20:59:18.968Z,14.87
2018-05-02T21:01:48.020Z,14.47
2018-05-02T21:04:21.982Z,15.63
2018-05-02T21:06:56.025Z,14.60
2018-05-02T21:09:25.235Z,15.10
2018-05-02T21:11:55.061Z,16.17
2018-05-02T21:14:24.133Z,14.53
2018-05-02T21:16:53.186Z,15.03
2018-05-02T21:19:22.232Z,14.83
2018-05-02T21:21:51.362Z,14.20
2018-05-02T21:24:20.481Z,13.63
2018-05-02T21:26:49.548Z,15.50
2018-05-02T21:29:18.897Z,15.23
2018-05-02T21:31:48.006Z,15.47
2018-05-02T21:34:17.826Z,15.47
2018-05-02T21:36:47.676Z,15.03
2018-05-02T21:39:16.717Z,15.53
2018-05-02T21:41:46.573Z,15.03
2018-05-02T21:44:15.628Z,16.30
2018-05-02T21:46:46.414Z,14.73
2018-05-02T21:49:15.504Z,15.27
2018-05-02T21:51:44.587Z,14.77
2018-05-02T21:54:13.660Z,14.87
2018-05-02T21:56:43.561Z,14.17
2018-05-02T21:59:12.653Z,14.83
2018-05-02T22:01:42.518Z,14.00
2018-05-02T22:04:11.602Z,14.27
2018-05-02T22:06:40.676Z,14.07
2018-05-02T22:09:09.762Z,13.70
2018-05-02T22:11:40.656Z,13.27
2018-05-02T22:14:10.065Z,14.87
2018-05-02T22:16:39.477Z,13.77
2018-05-02T22:19:08.553Z,12.83
2018-05-02T22:21:38.603Z,13.90
2018-05-02T22:24:09.639Z,13.70
2018-05-02T22:26:39.138Z,12.93
2018-05-02T22:29:08.329Z,15.27
2018-05-02T22:31:37.720Z,14.23
2018-05-02T22:34:06.878Z,13.70
2018-05-02T22:36:35.951Z,12.13
2018-05-02T22:39:05.966Z,14.80
2018-05-02T22:41:35.917Z,12.80
2018-05-02T22:44:04.960Z,12.90
2018-05-02T22:46:34.042Z,13.60
2018-05-02T22:49:03.105Z,13.60
2018-05-02T22:51:32.155Z,13.13
2018-05-02T22:54:01.233Z,12.37
2018-05-02T22:56:30.284Z,13.20
2018-05-02T22:58:59.385Z,13.03
2018-05-02T23:01:28.690Z,13.17
2018-05-02T23:03:57.778Z,12.60
2018-05-02T23:06:26.836Z,13.50
2018-05-02T23:08:56.687Z,13.30
2018-05-02T23:11:25.733Z,12.43
2018-05-02T23:13:55.567Z,12.93
2018-05-02T23:16:24.638Z,14.30
2018-05-02T23:18:53.677Z,13.90
2018-05-02T23:21:22.765Z,13.20
2018-05-02T23:23:51.850Z,13.97
2018-05-02T23:26:20.896Z,14.67
2018-05-02T23:28:50.043Z,13.37
2018-05-02T23:31:19.847Z,12.83
2018-05-02T23:33:48.916Z,13.03
2018-05-02T23:36:17.998Z,13.73
2018-05-02T23:38:47.072Z,13.70
2018-05-02T23:41:16.198Z,13.53
2018-05-02T23:43:45.934Z,12.57
2018-05-02T23:46:15.767Z,13.13
2018-05-02T23:48:44.820Z,14.00
2018-05-02T23:51:13.904Z,13.60
2018-05-02T23:53:42.962Z,12.70
2018-05-02T23:56:12.026Z,11.90
2018-05-02T23:58:41.073Z,12.43
